New Richmond Regional Airport
KRNH : now visible

Airfield :











YOU CAN JOIN US ON...

 
LOGIN :

Register | Disclaimer

   EN    FR    IT 

 









Legend :    VFR   Marginal VFR   IFR   Intensive IFR   Very Intensive IFR
Visi :
Ceiling :
>= 8 km
>= 3000ft
5 to 8 km
1000 to 3000 ft
1500m to 5 km
500 to 1000 ft
800 to 1500m
200 to 500 ft
< 800m
< 200 ft
Symbols :   Thunderstorms  Fog  Heavy snow  Heavy precipitations  Wind > 20 kt






- Airport Elevation : 998 ft


KRNH - New Richmond Regional

CURRENT METAR :
  • 120615Z AUTO 11005KT 10SM SCT055 OVC110 M15/M20 A3033 RMK AO2 T11481200

EXPIRED METARs :
  • 120555Z AUTO 10006KT 10SM BKN055 BKN090 OVC120 M15/M20 A3034 RMK AO2 T11491200 11147 21165 411471272
  • 120535Z AUTO 11005KT 10SM SCT031 SCT039 OVC055 M15/M20 A3035 RMK AO2 T11481200
  • 120515Z AUTO 10006KT 10SM OVC031 M15/M20 A3036 RMK AO2 T11501200
  • 120455Z AUTO 10004KT 10SM BKN031 OVC037 M15/M20 A3037 RMK AO2 T11501200
  • 120435Z AUTO 10006KT 10SM OVC026 M15/M20 A3036 RMK AO2 T11501200
  • 120415Z AUTO 10005KT 10SM SCT027 BKN033 OVC050 M15/M20 A3037 RMK AO2 T11511201
  • 120355Z AUTO 10003KT 10SM BKN048 OVC050 M15/M20 A3038 RMK AO2 T11511202
  • 120335Z AUTO 13003KT 10SM SCT049 OVC055 M15/M21 A3039 RMK AO2 T11531206

TAF KRNH
Valid from the 12 at 06:00 until the 13 at 06:00 UTC


120549Z 1206/1306 11008KT P6SM -SN OVC050
FM121100 10011KT 3/4SM -SN BR OVC015
FM121600 09007KT 5SM -SN BR OVC012
FM121900 04006KT P6SM OVC008
FM122200 35006KT P6SM OVC010



MET'MAP, your aeronautical weather chart ! - Copyright ORBIFLY December 2007 - Disclaimer

ORBIFLY MET'MAP TEAM :

Programming & Development : Alexandra Zaïnal
Concept & original design : Baudouin d'Aumeries
Assistance for programming : Marc-Olivier Méhu
Technical & hardware support : Manuel Goepfert

Contact : metmap@orbifly.com




SOURCES & CREDITS :

   NOAA       Earth
Advisory